KDKK/DKK METAR and TAF weather

Enter ICAO airport designator
Station Type Date Time Source
KDKK METAR 2020/01/22 17:53 UTC NOAA

KDKK 221753Z AUTO 20007KT 10SM CLR M01/M11 A3036 RMK AO2 SLP290 T10111106 11011 21072 58016


Station Type Date Time Source
KDKK Decoded METAR 2020/01/22 17:53 UTC NOAA

CHAUTAUQUA COUNTY/DUNKIRK, NY, United States (KDKK) 42-30N 079-17W 202M
Jan 22, 2020 - 12:53 PM EST / 2020.01.22 1753 UTC
Wind: from the SSW (200 degrees) at 8 MPH (7 KT):0
Visibility: 10 mile(s):0
Sky conditions: clear
Temperature: 30.0 F (-1.1 C)
Windchill: 23 F (-5 C):1
Dew Point: 12.9 F (-10.6 C)
Relative Humidity: 48%
Pressure (altimeter): 30.36 in. Hg (1028 hPa)
Pressure tendency: 0.05 inches (1.6 hPa) lower than three hours ago
ob: KDKK 221753Z AUTO 20007KT 10SM CLR M01/M11 A3036 RMK AO2 SLP290 T10111106 11011 21072 58016
cycle: 18

Station Type Date Time Source
KDKK TAF UTC NOAA

Error!

Example: see airport list